Time;durP1;ratioP1;P1;durP2;ratioP2;P2;SDS_P1;SDS_P2;PMS_P1;PMS_P2;Temp;Humidity;BMP_temperature;BMP_pressure;BME280_temperature;BME280_humidity;BME280_pressure;Samples;Min_cycle;Max_cycle;Signal;HPM_P1;HPM_P2
2021/12/20 00:02:05;;;;;;;31.27;16.00;;;3.90;99.90;;;;;;5038596;28;20206;-79
2021/12/20 00:04:31;;;;;;;21.08;14.10;;;4.00;99.90;;;;;;5039237;28;20212;-78
2021/12/20 00:06:58;;;;;;;27.75;15.82;;;4.00;99.90;;;;;;5039701;28;20206;-79
2021/12/20 00:09:25;;;;;;;29.48;17.70;;;4.10;99.90;;;;;;5039289;28;20221;-79
2021/12/20 00:11:51;;;;;;;21.35;14.13;;;4.20;99.90;;;;;;5038856;28;20201;-79
2021/12/20 00:14:18;;;;;;;27.92;16.10;;;4.20;99.90;;;;;;5039451;28;20209;-79
2021/12/20 00:16:46;;;;;;;24.58;17.05;;;4.30;99.90;;;;;;5039373;28;20204;-79
2021/12/20 00:19:13;;;;;;;27.77;17.27;;;4.30;99.90;;;;;;5038995;28;20201;-79
2021/12/20 00:21:40;;;;;;;26.08;17.02;;;4.40;99.90;;;;;;5038867;28;20198;-80
2021/12/20 00:24:07;;;;;;;28.95;15.90;;;4.20;99.90;;;;;;5039092;28;20215;-79
2021/12/20 00:26:33;;;;;;;22.45;14.02;;;4.10;99.90;;;;;;5039115;28;20203;-79
2021/12/20 00:29:00;;;;;;;30.08;17.27;;;3.90;99.90;;;;;;5038814;28;20212;-79
2021/12/20 00:31:27;;;;;;;25.75;17.38;;;3.90;99.90;;;;;;5042437;28;20221;-79
2021/12/20 00:33:55;;;;;;;19.20;14.93;;;3.90;99.90;;;;;;5047821;28;20205;-79
2021/12/20 00:36:24;;;;;;;26.63;16.15;;;3.90;99.90;;;;;;5050581;28;20207;-79
2021/12/20 00:41:35;;;;;;;27.20;16.40;;;3.80;99.90;;;;;;5049356;28;20294;-79
2021/12/20 00:44:02;;;;;;;29.80;19.73;;;3.70;99.90;;;;;;5045569;28;20193;-79
2021/12/20 00:46:29;;;;;;;30.33;16.42;;;3.70;99.90;;;;;;5052351;28;20211;-78
2021/12/20 00:48:57;;;;;;;29.25;17.42;;;3.70;99.90;;;;;;5049090;28;20201;-79
2021/12/20 00:51:24;;;;;;;24.77;15.73;;;3.70;99.90;;;;;;5045844;28;20222;-79
2021/12/20 00:53:50;;;;;;;25.88;18.10;;;3.80;99.90;;;;;;5052721;28;20448;-79
2021/12/20 00:56:17;;;;;;;28.13;17.48;;;3.90;99.90;;;;;;5047069;28;20214;-79
2021/12/20 00:58:44;;;;;;;31.02;18.42;;;3.80;99.90;;;;;;5038093;28;20202;-79
2021/12/20 01:01:11;;;;;;;28.98;16.90;;;3.80;99.90;;;;;;5043556;28;20218;-79
2021/12/20 01:03:38;;;;;;;34.90;20.27;;;3.90;99.90;;;;;;5047944;28;20204;-79
2021/12/20 01:06:06;;;;;;;24.17;17.42;;;4.00;99.90;;;;;;5046161;28;20210;-80
2021/12/20 01:08:36;;;;;;;26.15;18.05;;;4.10;99.90;;;;;;5046573;28;20201;-79
2021/12/20 01:11:04;;;;;;;25.50;18.25;;;4.10;99.90;;;;;;5048255;28;20231;-79
2021/12/20 01:13:33;;;;;;;28.40;16.83;;;4.20;99.90;;;;;;5049146;28;20199;-80
2021/12/20 01:16:03;;;;;;;27.77;15.30;;;4.20;99.90;;;;;;5047255;28;20210;-79
2021/12/20 01:18:30;;;;;;;28.25;17.30;;;4.00;99.90;;;;;;5046917;28;20205;-79
2021/12/20 01:20:57;;;;;;;27.45;17.38;;;3.90;99.90;;;;;;5048643;28;20240;-79
2021/12/20 01:23:25;;;;;;;31.02;19.05;;;3.90;99.90;;;;;;5046424;28;20210;-79
2021/12/20 01:25:52;;;;;;;26.23;18.20;;;3.80;99.90;;;;;;5037713;28;20200;-82
2021/12/20 01:28:19;;;;;;;29.80;20.02;;;3.80;99.90;;;;;;5037588;28;20202;-80
2021/12/20 01:30:45;;;;;;;32.17;17.27;;;3.70;99.90;;;;;;5037396;28;20234;-80
2021/12/20 01:33:13;;;;;;;29.75;18.35;;;3.90;99.90;;;;;;5037533;28;20199;-81
2021/12/20 01:35:41;;;;;;;25.15;17.00;;;4.00;99.90;;;;;;5036359;28;20202;-80
2021/12/20 01:38:09;;;;;;;30.73;17.10;;;4.00;99.90;;;;;;5037498;28;20203;-81
2021/12/20 01:40:37;;;;;;;30.95;17.25;;;4.10;99.90;;;;;;5037336;28;20213;-81
2021/12/20 01:43:06;;;;;;;27.35;18.33;;;4.20;99.90;;;;;;5037391;28;20465;-81
2021/12/20 01:45:33;;;;;;;30.75;18.55;;;4.20;99.90;;;;;;5037791;28;20206;-81
2021/12/20 01:48:07;;;;;;;37.30;20.15;;;4.10;99.90;;;;;;5035625;28;20215;-80
2021/12/20 01:53:20;;;;;;;31.13;20.58;;;4.20;99.90;;;;;;5032539;28;20198;-79
2021/12/20 01:55:49;;;;;;;25.63;17.15;;;4.20;99.90;;;;;;5034183;28;20232;-79
2021/12/20 01:58:16;;;;;;;32.28;18.35;;;4.30;99.90;;;;;;5033953;28;20210;-80
2021/12/20 02:03:27;;;;;;;27.13;18.17;;;4.30;99.90;;;;;;5033909;28;20623;-79
2021/12/20 02:05:57;;;;;;;26.20;17.45;;;4.40;99.90;;;;;;5033486;28;20689;-80
2021/12/20 02:08:26;;;;;;;28.60;18.15;;;4.40;99.90;;;;;;5034388;28;20208;-80
2021/12/20 02:10:56;;;;;;;32.05;19.58;;;4.30;99.90;;;;;;5032777;28;20229;-79
2021/12/20 02:13:25;;;;;;;27.30;16.50;;;4.30;99.90;;;;;;5034658;28;20237;-80
2021/12/20 02:15:52;;;;;;;26.23;16.73;;;4.40;99.90;;;;;;5034518;28;20209;-80
2021/12/20 02:18:19;;;;;;;27.80;16.48;;;4.40;99.90;;;;;;5032989;28;20198;-79
2021/12/20 02:20:48;;;;;;;29.17;17.50;;;4.50;99.90;;;;;;5034318;28;20587;-80
2021/12/20 02:23:14;;;;;;;29.25;17.55;;;4.50;99.90;;;;;;5033461;28;20217;-80
2021/12/20 02:25:41;;;;;;;22.38;14.63;;;4.50;99.90;;;;;;5034022;28;20205;-80
2021/12/20 02:28:11;;;;;;;26.55;17.08;;;4.50;99.90;;;;;;5033997;28;20581;-80
2021/12/20 02:30:47;;;;;;;26.98;16.92;;;4.50;99.90;;;;;;5034838;28;20222;-80
2021/12/20 02:38:45;;;;;;;24.98;15.98;;;4.40;99.90;;;;;;5034133;28;20206;-80
2021/12/20 02:41:15;;;;;;;26.10;18.60;;;4.40;99.90;;;;;;5035195;28;20227;-80
2021/12/20 02:43:43;;;;;;;31.42;21.30;;;4.50;99.90;;;;;;5034454;28;20244;-79
2021/12/20 02:46:30;;;;;;;28.40;17.65;;;4.50;99.90;;;;;;5034300;28;20268;-80
2021/12/20 02:48:57;;;;;;;29.13;18.92;;;4.50;99.90;;;;;;5036626;28;20288;-79
2021/12/20 02:51:26;;;;;;;24.45;17.67;;;4.50;99.90;;;;;;5037087;28;20236;-80
2021/12/20 02:53:54;;;;;;;26.35;16.10;;;4.40;99.90;;;;;;5036214;28;20588;-79
2021/12/20 02:56:22;;;;;;;29.25;15.65;;;4.30;99.90;;;;;;5036780;28;20206;-79
2021/12/20 02:58:48;;;;;;;36.05;20.65;;;4.30;99.90;;;;;;5037691;28;20229;-80
2021/12/20 03:01:16;;;;;;;27.52;17.58;;;4.20;99.90;;;;;;5039394;28;20222;-79
2021/12/20 03:03:43;;;;;;;23.80;15.95;;;4.20;99.90;;;;;;5036917;28;20236;-80
2021/12/20 03:06:12;;;;;;;25.70;17.65;;;4.30;99.90;;;;;;5036817;28;20608;-79
2021/12/20 03:08:44;;;;;;;29.30;17.33;;;4.30;99.90;;;;;;5036824;28;20217;-79
2021/12/20 03:11:11;;;;;;;25.20;16.15;;;4.20;99.90;;;;;;5036711;28;20279;-79
2021/12/20 03:13:38;;;;;;;34.53;20.33;;;4.30;99.90;;;;;;5060125;23;20234;-82
2021/12/20 03:16:05;;;;;;;23.35;15.60;;;4.30;99.90;;;;;;5040869;28;20209;-82
2021/12/20 03:18:32;;;;;;;24.98;15.82;;;4.30;99.90;;;;;;5039846;28;20202;-82
2021/12/20 03:20:59;;;;;;;22.77;16.90;;;4.30;99.90;;;;;;5039483;28;20198;-82
2021/12/20 03:23:26;;;;;;;33.55;19.40;;;4.30;99.90;;;;;;5039361;28;20230;-82
2021/12/20 03:25:54;;;;;;;32.00;17.58;;;4.30;99.90;;;;;;5039838;28;20202;-82
2021/12/20 03:28:21;;;;;;;26.77;17.52;;;4.20;99.90;;;;;;5040137;28;20209;-82
2021/12/20 03:30:48;;;;;;;31.85;17.88;;;4.30;99.90;;;;;;5039625;28;20237;-82
2021/12/20 03:33:15;;;;;;;28.17;16.45;;;4.20;99.90;;;;;;5036207;28;20232;-81
2021/12/20 03:35:41;;;;;;;23.73;17.38;;;4.10;99.90;;;;;;5036371;28;20215;-81
2021/12/20 03:38:09;;;;;;;29.48;18.02;;;4.10;99.90;;;;;;5036216;28;20800;-80
2021/12/20 03:40:36;;;;;;;26.98;16.38;;;4.10;99.90;;;;;;5037304;28;20569;-82
2021/12/20 03:43:05;;;;;;;24.60;16.95;;;4.10;99.90;;;;;;5032104;28;20226;-82
2021/12/20 03:45:33;;;;;;;30.08;17.17;;;4.10;99.90;;;;;;5040108;28;20211;-82
2021/12/20 03:47:59;;;;;;;26.77;16.95;;;4.10;99.90;;;;;;5039230;28;20252;-82
2021/12/20 03:50:27;;;;;;;29.30;18.85;;;4.10;99.90;;;;;;5039540;28;20222;-82
2021/12/20 03:52:54;;;;;;;32.25;17.60;;;4.20;99.90;;;;;;5038665;28;20226;-82
2021/12/20 03:55:20;;;;;;;30.75;18.63;;;4.10;99.90;;;;;;5039626;28;20221;-82
2021/12/20 03:57:47;;;;;;;28.30;17.55;;;4.20;99.90;;;;;;5039087;28;20704;-83
2021/12/20 04:00:17;;;;;;;29.88;17.42;;;4.20;99.90;;;;;;5038849;28;20215;-82
2021/12/20 04:02:47;;;;;;;34.70;20.00;;;4.10;99.90;;;;;;5039598;28;20233;-83
2021/12/20 04:05:14;;;;;;;30.80;20.33;;;3.80;99.90;;;;;;5039071;28;20202;-83
2021/12/20 04:07:41;;;;;;;27.92;18.75;;;3.50;99.90;;;;;;5039322;28;20284;-82
2021/12/20 04:10:09;;;;;;;32.28;17.83;;;3.70;99.90;;;;;;5039295;28;20228;-82
2021/12/20 04:12:36;;;;;;;29.85;20.05;;;3.70;99.90;;;;;;5038185;28;20227;-82
2021/12/20 04:15:05;;;;;;;28.00;17.88;;;3.50;99.90;;;;;;5039028;28;20197;-82
2021/12/20 04:17:34;;;;;;;26.55;19.75;;;3.40;99.90;;;;;;5040187;28;20236;-83
2021/12/20 04:20:01;;;;;;;35.03;19.73;;;3.40;99.90;;;;;;5040755;28;20262;-82
2021/12/20 04:22:28;;;;;;;36.45;18.75;;;3.50;99.90;;;;;;5047194;28;20245;-81
2021/12/20 04:24:54;;;;;;;29.83;19.65;;;3.60;99.90;;;;;;5052715;28;20216;-82
2021/12/20 04:27:21;;;;;;;32.17;19.08;;;3.70;99.90;;;;;;5049179;28;20232;-81
2021/12/20 04:29:48;;;;;;;31.85;19.98;;;3.70;99.90;;;;;;5041012;28;20305;-81
2021/12/20 04:32:15;;;;;;;27.33;18.20;;;3.90;99.90;;;;;;5040171;28;20726;-81
2021/12/20 04:34:43;;;;;;;28.00;17.45;;;4.00;99.90;;;;;;5055588;28;20199;-80
2021/12/20 04:37:10;;;;;;;26.60;17.98;;;4.10;99.90;;;;;;5058568;28;20202;-81
2021/12/20 04:39:37;;;;;;;23.25;16.83;;;4.20;99.90;;;;;;5047225;28;20209;-82
2021/12/20 04:42:04;;;;;;;31.10;21.02;;;4.20;99.90;;;;;;5037817;28;20658;-82
2021/12/20 04:44:31;;;;;;;36.75;20.45;;;4.20;99.90;;;;;;5039686;28;20233;-78
2021/12/20 04:46:57;;;;;;;24.38;16.75;;;4.30;99.90;;;;;;5057287;28;20195;-79
2021/12/20 04:49:24;;;;;;;30.63;16.95;;;4.20;99.90;;;;;;5054883;28;20205;-80
2021/12/20 04:51:54;;;;;;;34.03;18.70;;;4.30;99.90;;;;;;5039787;28;20238;-82
2021/12/20 04:54:21;;;;;;;30.60;17.00;;;4.40;99.90;;;;;;5038517;28;20232;-82
2021/12/20 04:56:48;;;;;;;26.48;17.38;;;4.40;99.90;;;;;;5038235;28;20209;-82
2021/12/20 04:59:15;;;;;;;29.13;18.42;;;4.50;99.90;;;;;;5038226;28;20205;-82
2021/12/20 05:01:41;;;;;;;30.38;18.25;;;4.50;99.90;;;;;;5037502;28;20205;-82
2021/12/20 05:04:08;;;;;;;28.48;17.42;;;4.40;99.90;;;;;;5037730;28;20222;-82
2021/12/20 05:06:35;;;;;;;21.33;14.65;;;4.50;99.90;;;;;;5037580;28;20224;-82
2021/12/20 05:09:05;;;;;;;23.05;15.30;;;4.50;99.90;;;;;;5037308;28;20210;-81
2021/12/20 05:11:33;;;;;;;26.63;17.00;;;4.60;99.90;;;;;;5036240;28;20253;-82
2021/12/20 05:14:00;;;;;;;27.83;17.70;;;4.60;99.90;;;;;;5036905;28;20234;-82
2021/12/20 05:16:27;;;;;;;26.42;17.05;;;4.50;99.90;;;;;;5038353;28;20198;-83
2021/12/20 05:18:54;;;;;;;31.75;19.70;;;4.50;99.90;;;;;;5038175;28;20208;-83
2021/12/20 05:21:21;;;;;;;26.83;17.58;;;4.50;99.90;;;;;;5038258;28;20203;-82
2021/12/20 05:23:47;;;;;;;27.10;17.45;;;4.50;99.90;;;;;;5037616;28;20226;-81
2021/12/20 05:26:16;;;;;;;28.70;19.08;;;4.60;99.90;;;;;;5038257;28;20206;-82
2021/12/20 05:28:43;;;;;;;28.15;18.20;;;4.60;99.90;;;;;;5037122;28;20210;-82
2021/12/20 05:31:09;;;;;;;27.90;17.02;;;4.70;99.90;;;;;;5036983;28;20233;-82
2021/12/20 05:33:36;;;;;;;27.42;18.45;;;4.70;99.90;;;;;;5037192;28;20233;-82
2021/12/20 05:36:04;;;;;;;25.15;17.10;;;4.70;99.90;;;;;;5036508;28;20209;-82
2021/12/20 05:38:31;;;;;;;29.60;16.80;;;4.70;99.90;;;;;;5041094;28;20210;-82
2021/12/20 05:40:57;;;;;;;30.35;18.65;;;4.40;99.90;;;;;;5042472;28;20212;-83
2021/12/20 05:43:25;;;;;;;30.75;16.90;;;4.30;99.90;;;;;;5040858;28;20229;-82
2021/12/20 05:45:52;;;;;;;28.33;18.83;;;4.40;99.90;;;;;;5039616;28;20209;-81
2021/12/20 05:48:19;;;;;;;28.00;18.15;;;4.50;99.90;;;;;;5046348;28;20206;-81
2021/12/20 05:50:46;;;;;;;26.52;18.95;;;4.50;99.90;;;;;;5050822;28;20233;-83
2021/12/20 05:53:12;;;;;;;23.75;15.90;;;4.50;99.90;;;;;;5048534;28;20228;-82
2021/12/20 05:55:39;;;;;;;23.98;17.25;;;4.60;99.90;;;;;;5048776;28;20213;-83
2021/12/20 05:58:06;;;;;;;27.40;17.50;;;4.60;99.90;;;;;;5037153;28;20227;-84
2021/12/20 06:00:34;;;;;;;24.95;16.02;;;4.60;99.90;;;;;;5016708;28;20217;-83
2021/12/20 06:03:01;;;;;;;27.30;18.00;;;4.70;99.90;;;;;;5029322;28;20233;-83
2021/12/20 06:05:27;;;;;;;26.88;16.95;;;4.60;99.90;;;;;;5035781;28;20586;-84
2021/12/20 06:07:54;;;;;;;28.60;17.13;;;4.50;99.90;;;;;;5035829;28;20205;-83
2021/12/20 06:10:21;;;;;;;28.80;17.13;;;4.60;99.90;;;;;;5036957;28;20270;-82
2021/12/20 06:12:48;;;;;;;29.30;17.27;;;4.70;99.90;;;;;;5036475;28;20606;-82
2021/12/20 06:15:15;;;;;;;33.50;18.75;;;4.70;99.90;;;;;;5036803;28;20205;-82
2021/12/20 06:17:43;;;;;;;27.10;17.10;;;4.70;99.90;;;;;;5038626;28;20661;-82
2021/12/20 06:20:13;;;;;;;26.90;16.60;;;4.70;99.90;;;;;;5036281;28;20217;-82
2021/12/20 06:22:40;;;;;;;28.35;16.20;;;4.80;99.90;;;;;;5038889;28;20228;-82
2021/12/20 06:25:08;;;;;;;27.42;17.00;;;4.80;99.90;;;;;;5040869;28;20221;-82
2021/12/20 06:27:34;;;;;;;31.92;17.08;;;4.70;99.90;;;;;;5040961;28;20210;-82
2021/12/20 06:30:01;;;;;;;27.23;15.75;;;4.60;99.90;;;;;;5040895;28;20202;-82
2021/12/20 06:32:28;;;;;;;26.05;17.25;;;4.60;99.90;;;;;;5040927;28;20578;-82
2021/12/20 06:34:56;;;;;;;27.83;17.13;;;4.60;99.90;;;;;;5040897;28;20210;-82
2021/12/20 06:37:23;;;;;;;26.20;18.50;;;4.60;99.90;;;;;;5040840;28;20553;-82
2021/12/20 06:39:50;;;;;;;26.92;17.50;;;4.70;99.90;;;;;;5041312;28;20217;-82
2021/12/20 06:42:17;;;;;;;29.38;19.50;;;4.70;99.90;;;;;;5040646;28;20668;-82
2021/12/20 06:44:44;;;;;;;27.63;17.65;;;4.70;99.90;;;;;;5041538;28;20205;-82
2021/12/20 06:47:11;;;;;;;27.05;18.55;;;4.70;99.90;;;;;;5041627;28;20202;-82
2021/12/20 06:49:38;;;;;;;25.27;16.90;;;4.60;99.90;;;;;;5041408;28;20221;-82
2021/12/20 06:52:07;;;;;;;19.65;16.70;;;4.70;99.90;;;;;;5041089;28;20237;-82
2021/12/20 06:54:34;;;;;;;20.50;15.23;;;4.70;99.90;;;;;;5040686;28;20230;-83
2021/12/20 06:57:00;;;;;;;24.77;17.42;;;4.70;99.90;;;;;;5042723;28;20202;-83
2021/12/20 06:59:27;;;;;;;27.02;17.08;;;4.70;99.90;;;;;;5039774;28;20206;-83
2021/12/20 07:01:54;;;;;;;30.50;19.60;;;4.70;99.90;;;;;;5040499;28;20208;-81
2021/12/20 07:04:21;;;;;;;29.40;19.40;;;4.70;99.90;;;;;;5039596;28;20237;-81
2021/12/20 07:06:48;;;;;;;31.80;17.83;;;4.70;99.90;;;;;;5039704;28;20210;-81
2021/12/20 07:09:17;;;;;;;31.75;17.95;;;4.70;99.90;;;;;;5031167;28;20230;-80
2021/12/20 07:11:44;;;;;;;27.40;17.50;;;4.70;99.90;;;;;;5019882;28;20233;-83
2021/12/20 07:14:12;;;;;;;27.50;19.08;;;4.70;99.90;;;;;;5021175;28;20265;-83
2021/12/20 07:16:40;;;;;;;27.83;16.85;;;4.70;99.90;;;;;;5034536;28;20212;-84
2021/12/20 07:19:07;;;;;;;22.98;17.10;;;4.70;99.90;;;;;;5040875;28;20202;-83
2021/12/20 07:21:34;;;;;;;25.80;16.77;;;4.80;99.90;;;;;;5039048;28;20202;-82
2021/12/20 07:24:01;;;;;;;27.25;15.90;;;4.80;99.90;;;;;;5039626;28;20226;-83
2021/12/20 07:26:30;;;;;;;29.25;15.90;;;4.90;99.90;;;;;;5039363;28;20204;-84
2021/12/20 07:28:57;;;;;;;31.38;17.83;;;4.90;99.90;;;;;;5039971;28;20207;-83
2021/12/20 07:31:24;;;;;;;26.38;17.10;;;4.90;99.90;;;;;;5038772;28;20714;-83
2021/12/20 07:33:51;;;;;;;25.65;16.60;;;4.90;99.90;;;;;;5038771;28;20742;-83
2021/12/20 07:36:20;;;;;;;28.45;17.75;;;4.90;99.90;;;;;;5039445;28;20198;-83
2021/12/20 07:38:47;;;;;;;25.02;15.52;;;5.00;99.90;;;;;;5039154;28;20206;-83
2021/12/20 07:41:13;;;;;;;26.13;16.42;;;5.00;99.90;;;;;;5038892;28;20682;-83
2021/12/20 07:43:41;;;;;;;22.70;14.18;;;5.00;99.90;;;;;;5037439;28;20226;-83
2021/12/20 07:46:08;;;;;;;23.25;14.00;;;5.00;99.90;;;;;;5038307;28;20210;-83
2021/12/20 07:48:35;;;;;;;23.42;15.35;;;4.90;99.90;;;;;;5038001;28;20225;-83
2021/12/20 07:51:03;;;;;;;28.52;16.20;;;4.80;99.90;;;;;;5036628;28;20205;-83
2021/12/20 07:53:30;;;;;;;25.38;15.77;;;4.80;99.90;;;;;;5036447;28;20244;-83
2021/12/20 07:55:56;;;;;;;22.85;13.23;;;4.70;99.90;;;;;;5037564;28;20217;-84
2021/12/20 07:58:23;;;;;;;22.20;12.55;;;4.70;99.90;;;;;;5038900;28;20217;-83
2021/12/20 08:00:52;;;;;;;19.20;13.98;;;4.70;99.90;;;;;;5036885;28;20206;-82
2021/12/20 08:03:27;;;;;;;24.52;16.90;;;4.70;99.90;;;;;;5034895;28;20749;-86
2021/12/20 08:05:54;;;;;;;21.73;14.35;;;4.70;99.90;;;;;;5038434;28;20212;-84
2021/12/20 08:08:21;;;;;;;21.05;14.40;;;4.60;99.90;;;;;;5037701;28;20202;-79
2021/12/20 08:10:48;;;;;;;21.63;14.63;;;4.70;99.90;;;;;;5035751;28;20207;-79
2021/12/20 08:13:16;;;;;;;20.65;14.25;;;4.70;99.90;;;;;;5033604;28;20226;-78
2021/12/20 08:15:43;;;;;;;18.52;13.07;;;4.80;99.90;;;;;;5033790;28;20206;-78
2021/12/20 08:18:11;;;;;;;22.95;15.13;;;4.80;99.90;;;;;;5033524;28;20694;-79
2021/12/20 08:20:37;;;;;;;19.98;13.57;;;4.90;99.90;;;;;;5039666;28;20216;-79
2021/12/20 08:23:04;;;;;;;23.63;16.02;;;5.00;99.90;;;;;;5034491;28;20230;-80
2021/12/20 08:25:31;;;;;;;23.45;14.15;;;5.00;99.90;;;;;;5036663;28;20198;-79
2021/12/20 08:27:58;;;;;;;23.35;15.60;;;5.10;99.90;;;;;;5034913;28;20252;-80
2021/12/20 08:30:25;;;;;;;16.25;13.55;;;5.10;99.90;;;;;;5035311;28;20206;-79
2021/12/20 08:32:52;;;;;;;17.35;12.88;;;5.10;99.90;;;;;;5035318;28;20238;-79
2021/12/20 08:35:21;;;;;;;25.50;14.93;;;5.10;99.90;;;;;;5034811;28;20202;-81
2021/12/20 08:37:49;;;;;;;20.17;13.23;;;5.10;99.90;;;;;;5034353;28;20228;-81
2021/12/20 08:40:17;;;;;;;22.33;14.48;;;5.00;99.90;;;;;;5033527;28;20583;-80
2021/12/20 08:42:44;;;;;;;23.40;14.30;;;5.00;99.90;;;;;;5034961;28;20218;-80
2021/12/20 08:45:13;;;;;;;21.90;15.25;;;5.10;99.90;;;;;;5035827;28;20206;-78
2021/12/20 08:47:40;;;;;;;16.75;13.93;;;5.10;99.90;;;;;;5035891;28;20203;-80
2021/12/20 08:50:10;;;;;;;19.52;13.15;;;5.20;99.90;;;;;;5033768;28;20216;-79
2021/12/20 08:52:38;;;;;;;22.00;13.20;;;5.20;99.90;;;;;;5032965;28;20229;-79
2021/12/20 08:55:06;;;;;;;19.83;13.60;;;5.20;99.90;;;;;;5035826;28;20219;-79
2021/12/20 08:57:33;;;;;;;26.27;15.73;;;5.30;99.90;;;;;;5015724;28;20205;-79
2021/12/20 09:00:02;;;;;;;24.85;15.63;;;5.20;99.90;;;;;;5013355;28;20218;-79
2021/12/20 09:02:29;;;;;;;22.88;15.00;;;5.30;99.90;;;;;;5033532;28;20201;-80
2021/12/20 09:04:55;;;;;;;29.67;17.90;;;5.30;99.90;;;;;;5037995;28;20199;-80
2021/12/20 09:07:22;;;;;;;25.33;16.45;;;5.40;99.90;;;;;;5035529;28;20217;-78
2021/12/20 09:09:51;;;;;;;22.00;16.20;;;5.50;99.90;;;;;;5033011;28;20332;-79
2021/12/20 09:12:18;;;;;;;27.90;19.27;;;5.60;99.90;;;;;;5034148;28;20222;-78
2021/12/20 09:14:45;;;;;;;19.75;14.38;;;5.70;99.90;;;;;;5051477;23;20304;-84
2021/12/20 09:17:12;;;;;;;20.42;13.85;;;5.80;99.90;;;;;;5036850;28;20216;-83
2021/12/20 09:19:39;;;;;;;22.10;15.18;;;5.90;99.90;;;;;;5037703;28;20198;-84
2021/12/20 09:22:07;;;;;;;18.38;13.85;;;6.00;99.90;;;;;;5041352;28;20210;-83
2021/12/20 09:24:34;;;;;;;19.55;14.40;;;6.10;99.90;;;;;;5055221;28;20222;-82
2021/12/20 09:27:03;;;;;;;24.95;15.52;;;6.20;99.90;;;;;;5057349;28;20206;-83
2021/12/20 09:29:31;;;;;;;24.80;14.23;;;6.30;99.90;;;;;;5056432;28;20235;-85
2021/12/20 09:31:59;;;;;;;21.15;13.75;;;6.30;99.90;;;;;;5056574;28;20229;-83
2021/12/20 09:34:28;;;;;;;22.30;16.70;;;6.20;99.90;;;;;;5057962;28;20230;-86
2021/12/20 09:37:05;;;;;;;21.45;15.10;;;6.30;99.90;;;;;;5059267;28;20209;-86
2021/12/20 09:39:33;;;;;;;22.70;15.75;;;6.40;99.90;;;;;;5056935;28;20289;-84
2021/12/20 09:42:03;;;;;;;24.35;15.85;;;6.30;99.90;;;;;;5057114;28;20270;-83
2021/12/20 09:44:32;;;;;;;22.42;16.25;;;6.40;99.90;;;;;;5057622;28;20261;-85
2021/12/20 09:47:01;;;;;;;19.73;13.98;;;6.50;99.90;;;;;;5057800;28;20214;-86
2021/12/20 09:49:29;;;;;;;24.70;15.45;;;6.50;99.90;;;;;;5056735;28;20244;-84
2021/12/20 09:51:57;;;;;;;18.95;14.23;;;6.60;99.90;;;;;;5055731;28;20198;-84
2021/12/20 09:54:24;;;;;;;19.05;12.02;;;6.70;99.90;;;;;;5059144;28;20596;-83
2021/12/20 09:56:53;;;;;;;20.58;15.82;;;6.70;99.90;;;;;;5052986;28;20210;-83
2021/12/20 09:59:22;;;;;;;23.10;16.90;;;6.70;99.90;;;;;;5057666;28;20209;-83
2021/12/20 10:01:53;;;;;;;21.20;14.93;;;6.70;99.90;;;;;;5056608;28;20209;-83
2021/12/20 10:04:22;;;;;;;23.48;14.40;;;6.70;99.90;;;;;;5057331;28;20221;-84
2021/12/20 10:06:51;;;;;;;16.50;11.05;;;6.70;99.90;;;;;;5063045;28;20225;-82
2021/12/20 10:09:25;;;;;;;20.08;13.52;;;6.70;99.90;;;;;;5062467;28;20711;-85
2021/12/20 10:12:11;;;;;;;19.33;13.38;;;6.70;99.90;;;;;;5054727;28;20718;-83
2021/12/20 10:15:09;;;;;;;21.60;13.50;;;6.70;99.90;;;;;;5056593;28;21017;-83
2021/12/20 10:17:51;;;;;;;23.75;15.88;;;6.70;99.90;;;;;;5065516;28;20202;-82
2021/12/20 10:20:20;;;;;;;21.17;14.43;;;6.70;99.90;;;;;;5067409;28;20217;-82
2021/12/20 10:22:48;;;;;;;18.60;13.18;;;6.80;99.90;;;;;;5068597;28;20194;-81
2021/12/20 10:25:29;;;;;;;20.60;13.75;;;6.90;99.90;;;;;;5063813;28;20205;-82
2021/12/20 10:28:05;;;;;;;21.23;15.27;;;7.00;99.90;;;;;;5056436;28;20201;-84
2021/12/20 10:30:34;;;;;;;19.52;13.25;;;7.10;99.90;;;;;;5057115;28;20212;-84
2021/12/20 10:33:04;;;;;;;17.58;12.90;;;7.10;99.90;;;;;;5036506;28;20234;-84
2021/12/20 10:35:39;;;;;;;24.27;13.80;;;7.20;99.90;;;;;;5056270;28;20251;-85
2021/12/20 10:38:20;;;;;;;15.70;10.63;;;7.30;99.90;;;;;;5058555;28;20197;-85
2021/12/20 10:40:49;;;;;;;14.85;12.75;;;7.40;99.90;;;;;;5058184;28;20239;-85
2021/12/20 10:43:20;;;;;;;13.75;11.10;;;7.60;99.90;;;;;;5056226;28;20224;-84
2021/12/20 10:45:46;;;;;;;13.02;9.82;;;7.60;99.90;;;;;;5052078;28;20220;-85
2021/12/20 10:48:15;;;;;;;13.82;10.00;;;7.60;99.90;;;;;;5054872;28;20205;-83
2021/12/20 10:50:45;;;;;;;14.60;10.60;;;7.60;99.90;;;;;;5054969;28;20202;-85
2021/12/20 10:53:15;;;;;;;16.15;11.45;;;7.70;99.90;;;;;;5054495;28;20218;-83
2021/12/20 10:55:45;;;;;;;11.88;9.02;;;7.80;99.90;;;;;;5053986;28;20598;-83
2021/12/20 10:58:33;;;;;;;14.80;10.80;;;7.80;99.90;;;;;;5053508;28;20206;-85
2021/12/20 11:01:17;;;;;;;13.93;9.20;;;7.80;99.90;;;;;;5050147;28;20212;-81
2021/12/20 11:03:56;;;;;;;10.52;9.18;;;7.80;99.90;;;;;;5053415;28;20217;-81
2021/12/20 11:06:38;;;;;;;9.45;8.15;;;7.60;99.90;;;;;;5053244;28;20576;-81
2021/12/20 11:09:15;;;;;;;10.40;8.45;;;7.50;99.90;;;;;;5053114;28;20205;-78
2021/12/20 11:11:47;;;;;;;13.13;8.75;;;7.50;99.90;;;;;;5056915;28;20679;-80
2021/12/20 11:14:15;;;;;;;11.20;9.13;;;7.70;99.90;;;;;;5057343;28;20236;-81
2021/12/20 11:16:44;;;;;;;13.18;9.27;;;7.90;99.90;;;;;;5058485;28;20573;-80
2021/12/20 11:19:16;;;;;;;13.20;9.00;;;7.90;99.90;;;;;;5058067;28;20536;-80
2021/12/20 11:21:54;;;;;;;10.15;9.07;;;7.80;99.90;;;;;;5057753;28;20817;-80
2021/12/20 11:24:23;;;;;;;13.38;9.25;;;7.70;99.90;;;;;;5057638;28;20562;-80
2021/12/20 11:26:51;;;;;;;12.80;9.88;;;7.40;99.90;;;;;;5057949;28;20591;-81
2021/12/20 11:29:18;;;;;;;12.35;9.48;;;6.90;99.90;;;;;;5057956;28;20209;-80
2021/12/20 11:31:45;;;;;;;14.45;11.02;;;6.90;99.90;;;;;;5057308;28;20202;-80
2021/12/20 11:34:14;;;;;;;16.73;10.70;;;6.90;99.90;;;;;;5057822;28;20240;-80
2021/12/20 11:36:41;;;;;;;15.82;11.32;;;6.80;99.90;;;;;;5059439;28;20217;-80
2021/12/20 11:39:09;;;;;;;15.98;11.02;;;6.60;99.90;;;;;;5059351;28;20212;-80
2021/12/20 11:41:37;;;;;;;17.88;10.60;;;6.70;99.90;;;;;;5057151;28;20206;-80
2021/12/20 11:44:07;;;;;;;12.00;10.70;;;6.80;99.90;;;;;;5057733;28;20683;-80
2021/12/20 11:46:42;;;;;;;12.68;9.45;;;7.60;99.90;;;;;;5058037;28;20228;-80
2021/12/20 11:49:10;;;;;;;15.10;8.93;;;8.70;99.90;;;;;;5058019;28;20186;-81
2021/12/20 11:51:58;;;;;;;10.40;8.40;;;10.00;99.90;;;;;;5057494;28;20207;-81
2021/12/20 11:54:40;;;;;;;11.73;9.13;;;11.60;99.90;;;;;;5058218;28;20596;-81
2021/12/20 11:57:09;;;;;;;10.40;8.10;;;12.50;96.70;;;;;;5057845;28;20465;-81
2021/12/20 11:59:50;;;;;;;8.97;7.60;;;12.80;95.80;;;;;;5057777;28;20447;-81
2021/12/20 12:02:26;;;;;;;10.30;8.50;;;13.70;95.80;;;;;;5057892;28;20456;-81
2021/12/20 12:04:57;;;;;;;9.90;8.03;;;14.60;92.00;;;;;;5057734;28;20464;-81
2021/12/20 12:07:27;;;;;;;10.83;7.70;;;15.10;87.30;;;;;;5057351;28;20444;-80
2021/12/20 12:10:00;;;;;;;9.87;7.87;;;15.40;86.40;;;;;;5058011;28;20523;-81
2021/12/20 12:12:28;;;;;;;7.97;6.77;;;16.60;87.20;;;;;;5057417;28;20463;-81
2021/12/20 12:15:03;;;;;;;9.90;7.37;;;17.10;80.60;;;;;;5057520;28;20486;-81
2021/12/20 12:17:53;;;;;;;8.30;7.40;;;16.20;78.10;;;;;;5058429;28;20451;-81
2021/12/20 12:20:46;;;;;;;10.23;8.37;;;15.70;78.80;;;;;;5058190;28;20483;-81
2021/12/20 12:23:20;;;;;;;12.60;8.33;;;15.00;81.00;;;;;;5058974;28;20467;-81
2021/12/20 12:25:49;;;;;;;9.87;7.60;;;14.30;82.10;;;;;;5057626;28;20457;-80
2021/12/20 12:28:18;;;;;;;9.30;8.30;;;13.50;83.60;;;;;;5056862;28;20440;-80
2021/12/20 12:30:56;;;;;;;9.60;7.70;;;12.70;85.80;;;;;;5056899;28;20465;-80
2021/12/20 12:33:37;;;;;;;10.00;6.70;;;12.00;87.80;;;;;;5056881;28;20544;-80
2021/12/20 12:36:21;;;;;;;8.83;7.60;;;11.40;90.20;;;;;;5057012;28;20456;-80
2021/12/20 12:38:55;;;;;;;9.73;7.80;;;11.00;91.00;;;;;;5054975;28;20457;-80
2021/12/20 12:41:25;;;;;;;13.53;9.60;;;10.50;91.90;;;;;;5056094;28;20678;-80
2021/12/20 12:44:06;;;;;;;13.23;10.30;;;10.10;92.80;;;;;;5056106;28;20504;-80
2021/12/20 12:47:00;;;;;;;12.98;9.45;;;9.70;94.20;;;;;;5056536;28;20236;-80
2021/12/20 12:49:48;;;;;;;14.60;9.80;;;9.20;95.10;;;;;;5047060;28;20205;-80
2021/12/20 12:52:36;;;;;;;10.85;8.73;;;9.00;96.00;;;;;;5055289;28;20209;-78
2021/12/20 12:55:13;;;;;;;8.02;7.15;;;8.70;97.00;;;;;;5055256;28;20225;-78
2021/12/20 12:57:41;;;;;;;10.95;8.57;;;8.50;97.70;;;;;;5056127;28;20205;-80
2021/12/20 13:00:27;;;;;;;11.00;7.85;;;8.20;98.20;;;;;;5057234;28;20677;-81
2021/12/20 13:03:00;;;;;;;15.27;9.18;;;8.10;98.90;;;;;;5058502;28;20724;-81